Market Rasen, United Kingdom
Current Conditions -  °F | °C
As of 10:50 AM on Friday 28 Nov 2014 (Local Time) from EGXP Reporting Station
Haze Haze  
Wind Chill: 10°   Ceiling: 1000
Heat Index: 10°   Visibility: 2.1mi
Dew Point: 10°   Wind: 10mph
Humidity: 100%   Direction: 80°E
Pressure: 29.68"   Gusts: NA
Location:  53.39°N, 0.34°W
Report Text: EGXP 281050Z 08009KT 3500 BR BKN010 10/10 Q1005 YLO1
Loading
Personal Weather Stations






























Interactive Weather Map New forecast layout! Learn more

10-Day Weather Forecast

Advertisements
Track Severe Weather on mobile